sensor_id;sensor_type;location;lat;lon;timestamp;temperature;humidity
11284;DHT22;5698;47.332;11.180;2024-01-15T00:01:14;0.10;99.90
11284;DHT22;5698;47.332;11.180;2024-01-15T00:03:41;0.10;99.90
11284;DHT22;5698;47.332;11.180;2024-01-15T00:06:08;0.20;99.90
11284;DHT22;5698;47.332;11.180;2024-01-15T00:08:35;0.10;99.90
11284;DHT22;5698;47.332;11.180;2024-01-15T00:11:02;0.20;99.90
11284;DHT22;5698;47.332;11.180;2024-01-15T00:13:30;0.10;99.90
11284;DHT22;5698;47.332;11.180;2024-01-15T00:15:57;0.10;99.90
11284;DHT22;5698;47.332;11.180;2024-01-15T00:18:24;0.10;99.90
11284;DHT22;5698;47.332;11.180;2024-01-15T00:20:51;0.20;99.90
11284;DHT22;5698;47.332;11.180;2024-01-15T00:23:18;0.30;99.90
11284;DHT22;5698;47.332;11.180;2024-01-15T00:25:44;0.30;99.90
11284;DHT22;5698;47.332;11.180;2024-01-15T00:28:11;0.30;99.90
11284;DHT22;5698;47.332;11.180;2024-01-15T00:30:40;0.30;99.90
11284;DHT22;5698;47.332;11.180;2024-01-15T00:33:07;0.30;99.90
11284;DHT22;5698;47.332;11.180;2024-01-15T00:35:34;0.30;99.90
11284;DHT22;5698;47.332;11.180;2024-01-15T00:38:01;0.30;99.90
11284;DHT22;5698;47.332;11.180;2024-01-15T00:40:28;0.30;99.90
11284;DHT22;5698;47.332;11.180;2024-01-15T00:42:55;0.40;99.90
11284;DHT22;5698;47.332;11.180;2024-01-15T00:45:21;0.50;99.90
11284;DHT22;5698;47.332;11.180;2024-01-15T00:47:50;0.50;99.90
11284;DHT22;5698;47.332;11.180;2024-01-15T00:50:17;0.60;99.90
11284;DHT22;5698;47.332;11.180;2024-01-15T00:52:44;0.50;99.90
11284;DHT22;5698;47.332;11.180;2024-01-15T00:55:11;0.50;99.90
11284;DHT22;5698;47.332;11.180;2024-01-15T00:57:38;0.50;99.90
11284;DHT22;5698;47.332;11.180;2024-01-15T01:00:06;0.60;99.90
11284;DHT22;5698;47.332;11.180;2024-01-15T01:02:34;0.50;99.90
11284;DHT22;5698;47.332;11.180;2024-01-15T01:05:03;0.60;99.90
11284;DHT22;5698;47.332;11.180;2024-01-15T01:07:30;0.50;99.90
11284;DHT22;5698;47.332;11.180;2024-01-15T01:09:57;0.60;99.90
11284;DHT22;5698;47.332;11.180;2024-01-15T01:12:24;0.60;99.90
11284;DHT22;5698;47.332;11.180;2024-01-15T01:14:51;0.60;99.90
11284;DHT22;5698;47.332;11.180;2024-01-15T01:17:18;0.60;99.90
11284;DHT22;5698;47.332;11.180;2024-01-15T01:19:45;0.60;99.90
11284;DHT22;5698;47.332;11.180;2024-01-15T01:22:13;0.70;99.90
11284;DHT22;5698;47.332;11.180;2024-01-15T01:24:40;0.70;99.90
11284;DHT22;5698;47.332;11.180;2024-01-15T01:27:07;0.70;99.90
11284;DHT22;5698;47.332;11.180;2024-01-15T01:29:34;0.70;99.90
11284;DHT22;5698;47.332;11.180;2024-01-15T01:32:01;0.60;99.90
11284;DHT22;5698;47.332;11.180;2024-01-15T01:34:28;0.60;99.90
11284;DHT22;5698;47.332;11.180;2024-01-15T01:36:55;0.50;99.90
11284;DHT22;5698;47.332;11.180;2024-01-15T01:39:24;0.60;99.90
11284;DHT22;5698;47.332;11.180;2024-01-15T01:41:50;0.60;99.90
11284;DHT22;5698;47.332;11.180;2024-01-15T01:44:17;0.50;99.90
11284;DHT22;5698;47.332;11.180;2024-01-15T01:46:44;0.40;99.90
11284;DHT22;5698;47.332;11.180;2024-01-15T01:49:11;0.40;99.90
11284;DHT22;5698;47.332;11.180;2024-01-15T01:51:39;0.40;99.90
11284;DHT22;5698;47.332;11.180;2024-01-15T01:54:06;0.40;99.90
11284;DHT22;5698;47.332;11.180;2024-01-15T01:56:36;0.30;99.90
11284;DHT22;5698;47.332;11.180;2024-01-15T01:59:04;0.30;99.90
11284;DHT22;5698;47.332;11.180;2024-01-15T02:01:31;0.30;99.90
11284;DHT22;5698;47.332;11.180;2024-01-15T02:03:59;0.30;99.90
11284;DHT22;5698;47.332;11.180;2024-01-15T02:06:26;0.20;99.90
11284;DHT22;5698;47.332;11.180;2024-01-15T02:08:53;0.30;99.90
11284;DHT22;5698;47.332;11.180;2024-01-15T02:11:20;0.30;99.90
11284;DHT22;5698;47.332;11.180;2024-01-15T02:13:49;0.30;99.90
11284;DHT22;5698;47.332;11.180;2024-01-15T02:16:16;0.20;99.90
11284;DHT22;5698;47.332;11.180;2024-01-15T02:18:44;0.30;99.90
11284;DHT22;5698;47.332;11.180;2024-01-15T02:21:11;0.10;99.90
11284;DHT22;5698;47.332;11.180;2024-01-15T02:23:40;0.10;99.90
11284;DHT22;5698;47.332;11.180;2024-01-15T02:26:07;0.10;99.90
11284;DHT22;5698;47.332;11.180;2024-01-15T02:28:34;0.10;99.90
11284;DHT22;5698;47.332;11.180;2024-01-15T02:31:02;0.00;99.90
11284;DHT22;5698;47.332;11.180;2024-01-15T02:33:28;0.00;99.90
11284;DHT22;5698;47.332;11.180;2024-01-15T02:35:55;0.00;99.90
11284;DHT22;5698;47.332;11.180;2024-01-15T02:38:22;0.00;99.90
11284;DHT22;5698;47.332;11.180;2024-01-15T02:40:51;0.00;99.90
11284;DHT22;5698;47.332;11.180;2024-01-15T02:43:18;0.00;99.90
11284;DHT22;5698;47.332;11.180;2024-01-15T02:45:45;0.00;99.90
11284;DHT22;5698;47.332;11.180;2024-01-15T02:48:12;0.00;99.90
11284;DHT22;5698;47.332;11.180;2024-01-15T02:50:39;0.00;99.90
11284;DHT22;5698;47.332;11.180;2024-01-15T02:53:06;0.00;99.90
11284;DHT22;5698;47.332;11.180;2024-01-15T02:55:33;0.00;99.90
11284;DHT22;5698;47.332;11.180;2024-01-15T02:58:01;0.00;99.90
11284;DHT22;5698;47.332;11.180;2024-01-15T03:00:28;0.00;99.90
11284;DHT22;5698;47.332;11.180;2024-01-15T03:02:56;0.00;99.90
11284;DHT22;5698;47.332;11.180;2024-01-15T03:05:23;0.00;99.90
11284;DHT22;5698;47.332;11.180;2024-01-15T03:07:50;0.00;99.90
11284;DHT22;5698;47.332;11.180;2024-01-15T03:10:17;0.00;99.90
11284;DHT22;5698;47.332;11.180;2024-01-15T03:12:43;0.00;99.90
11284;DHT22;5698;47.332;11.180;2024-01-15T03:15:12;0.00;99.90
11284;DHT22;5698;47.332;11.180;2024-01-15T03:17:40;0.00;99.90
11284;DHT22;5698;47.332;11.180;2024-01-15T03:20:08;0.00;99.90
11284;DHT22;5698;47.332;11.180;2024-01-15T03:22:35;-0.10;99.90
11284;DHT22;5698;47.332;11.180;2024-01-15T03:25:03;-0.10;99.90
11284;DHT22;5698;47.332;11.180;2024-01-15T03:27:30;-0.10;99.90
11284;DHT22;5698;47.332;11.180;2024-01-15T03:29:57;-0.10;99.90
11284;DHT22;5698;47.332;11.180;2024-01-15T03:32:25;-0.10;99.90
11284;DHT22;5698;47.332;11.180;2024-01-15T03:34:52;-0.10;99.90
11284;DHT22;5698;47.332;11.180;2024-01-15T03:37:19;-0.10;99.90
11284;DHT22;5698;47.332;11.180;2024-01-15T03:39:46;-0.10;99.90
11284;DHT22;5698;47.332;11.180;2024-01-15T03:42:13;-0.10;99.90
11284;DHT22;5698;47.332;11.180;2024-01-15T03:44:40;-0.20;99.90
11284;DHT22;5698;47.332;11.180;2024-01-15T03:47:07;-0.20;99.90
11284;DHT22;5698;47.332;11.180;2024-01-15T03:49:36;-0.20;99.90
11284;DHT22;5698;47.332;11.180;2024-01-15T03:52:03;-0.30;99.90
11284;DHT22;5698;47.332;11.180;2024-01-15T03:54:30;-0.30;99.90
11284;DHT22;5698;47.332;11.180;2024-01-15T03:56:57;-0.30;99.90
11284;DHT22;5698;47.332;11.180;2024-01-15T03:59:24;-0.30;99.90
11284;DHT22;5698;47.332;11.180;2024-01-15T04:01:51;-0.30;99.90
11284;DHT22;5698;47.332;11.180;2024-01-15T04:04:18;-0.30;99.90
11284;DHT22;5698;47.332;11.180;2024-01-15T04:06:46;-0.40;99.90
11284;DHT22;5698;47.332;11.180;2024-01-15T04:09:13;-0.40;99.90
11284;DHT22;5698;47.332;11.180;2024-01-15T04:11:40;-0.40;99.90
11284;DHT22;5698;47.332;11.180;2024-01-15T04:14:07;-0.40;99.90
11284;DHT22;5698;47.332;11.180;2024-01-15T04:16:34;-0.50;99.90
11284;DHT22;5698;47.332;11.180;2024-01-15T04:19:01;-0.60;99.90
11284;DHT22;5698;47.332;11.180;2024-01-15T04:21:28;-0.50;99.90
11284;DHT22;5698;47.332;11.180;2024-01-15T04:23:56;-0.50;99.90
11284;DHT22;5698;47.332;11.180;2024-01-15T04:26:23;-0.60;99.90
11284;DHT22;5698;47.332;11.180;2024-01-15T04:28:50;-0.60;99.90
11284;DHT22;5698;47.332;11.180;2024-01-15T04:31:23;-0.60;99.90
11284;DHT22;5698;47.332;11.180;2024-01-15T04:33:50;-0.60;99.90
11284;DHT22;5698;47.332;11.180;2024-01-15T04:36:17;-0.60;99.90
11284;DHT22;5698;47.332;11.180;2024-01-15T04:38:44;-0.60;99.90
11284;DHT22;5698;47.332;11.180;2024-01-15T04:41:13;-0.60;99.90
11284;DHT22;5698;47.332;11.180;2024-01-15T04:43:40;-0.70;99.90
11284;DHT22;5698;47.332;11.180;2024-01-15T04:46:07;-0.70;99.90
11284;DHT22;5698;47.332;11.180;2024-01-15T04:48:35;-0.70;99.90
11284;DHT22;5698;47.332;11.180;2024-01-15T04:51:04;-0.70;99.90
11284;DHT22;5698;47.332;11.180;2024-01-15T04:53:34;-0.70;99.90
11284;DHT22;5698;47.332;11.180;2024-01-15T04:56:01;-0.70;99.90
11284;DHT22;5698;47.332;11.180;2024-01-15T04:58:29;-0.70;99.90
11284;DHT22;5698;47.332;11.180;2024-01-15T05:00:56;-0.80;99.90
11284;DHT22;5698;47.332;11.180;2024-01-15T05:03:23;-0.80;99.90
11284;DHT22;5698;47.332;11.180;2024-01-15T05:05:50;-0.80;99.90
11284;DHT22;5698;47.332;11.180;2024-01-15T05:08:17;-0.80;99.90
11284;DHT22;5698;47.332;11.180;2024-01-15T05:10:44;-0.80;99.90
11284;DHT22;5698;47.332;11.180;2024-01-15T05:13:11;-0.90;99.90
11284;DHT22;5698;47.332;11.180;2024-01-15T05:15:39;-0.90;99.90
11284;DHT22;5698;47.332;11.180;2024-01-15T05:18:06;-0.90;99.90
11284;DHT22;5698;47.332;11.180;2024-01-15T05:20:33;-0.90;99.90
11284;DHT22;5698;47.332;11.180;2024-01-15T05:23:00;-0.90;99.90
11284;DHT22;5698;47.332;11.180;2024-01-15T05:25:27;-0.90;99.90
11284;DHT22;5698;47.332;11.180;2024-01-15T05:27:54;-0.90;99.90
11284;DHT22;5698;47.332;11.180;2024-01-15T05:30:21;-0.90;99.90
11284;DHT22;5698;47.332;11.180;2024-01-15T05:32:49;-1.00;99.90
11284;DHT22;5698;47.332;11.180;2024-01-15T05:35:16;-1.00;99.90
11284;DHT22;5698;47.332;11.180;2024-01-15T05:37:45;-1.00;99.90
11284;DHT22;5698;47.332;11.180;2024-01-15T05:40:12;-1.10;99.90
11284;DHT22;5698;47.332;11.180;2024-01-15T05:42:39;-1.10;99.90
11284;DHT22;5698;47.332;11.180;2024-01-15T05:45:07;-1.20;99.90
11284;DHT22;5698;47.332;11.180;2024-01-15T05:47:34;-1.20;99.90
11284;DHT22;5698;47.332;11.180;2024-01-15T05:50:03;-1.20;99.90
11284;DHT22;5698;47.332;11.180;2024-01-15T05:52:30;-1.20;99.90
11284;DHT22;5698;47.332;11.180;2024-01-15T05:54:57;-1.30;99.90
11284;DHT22;5698;47.332;11.180;2024-01-15T05:57:24;-1.30;99.90
11284;DHT22;5698;47.332;11.180;2024-01-15T05:59:51;-1.30;99.90
11284;DHT22;5698;47.332;11.180;2024-01-15T06:02:18;-1.30;99.90
11284;DHT22;5698;47.332;11.180;2024-01-15T06:04:45;-1.40;99.90
11284;DHT22;5698;47.332;11.180;2024-01-15T06:07:13;-1.40;99.90
11284;DHT22;5698;47.332;11.180;2024-01-15T06:09:40;-1.50;99.90
11284;DHT22;5698;47.332;11.180;2024-01-15T06:12:08;-1.50;99.90
11284;DHT22;5698;47.332;11.180;2024-01-15T06:14:35;-1.50;99.90
11284;DHT22;5698;47.332;11.180;2024-01-15T06:17:02;-1.40;99.90
11284;DHT22;5698;47.332;11.180;2024-01-15T06:19:28;-1.50;99.90
11284;DHT22;5698;47.332;11.180;2024-01-15T06:21:55;-1.50;99.90
11284;DHT22;5698;47.332;11.180;2024-01-15T06:24:24;-1.60;99.90
11284;DHT22;5698;47.332;11.180;2024-01-15T06:26:51;-1.60;99.90
11284;DHT22;5698;47.332;11.180;2024-01-15T06:29:18;-1.60;99.90
11284;DHT22;5698;47.332;11.180;2024-01-15T06:31:45;-1.70;99.90
11284;DHT22;5698;47.332;11.180;2024-01-15T06:34:12;-1.70;99.90
11284;DHT22;5698;47.332;11.180;2024-01-15T06:36:38;-1.70;99.90
11284;DHT22;5698;47.332;11.180;2024-01-15T06:39:05;-1.70;99.90
11284;DHT22;5698;47.332;11.180;2024-01-15T06:41:34;-1.80;99.90
11284;DHT22;5698;47.332;11.180;2024-01-15T06:44:01;-1.80;99.90
11284;DHT22;5698;47.332;11.180;2024-01-15T06:46:28;-1.80;99.90
11284;DHT22;5698;47.332;11.180;2024-01-15T06:48:55;-1.90;99.90
11284;DHT22;5698;47.332;11.180;2024-01-15T06:51:22;-1.90;99.90
11284;DHT22;5698;47.332;11.180;2024-01-15T06:53:49;-1.90;99.90
11284;DHT22;5698;47.332;11.180;2024-01-15T06:56:16;-1.90;99.90
11284;DHT22;5698;47.332;11.180;2024-01-15T06:58:44;-1.90;99.90
11284;DHT22;5698;47.332;11.180;2024-01-15T07:01:11;-2.00;99.90
11284;DHT22;5698;47.332;11.180;2024-01-15T07:03:38;-1.90;99.90
11284;DHT22;5698;47.332;11.180;2024-01-15T07:06:05;-2.00;99.90
11284;DHT22;5698;47.332;11.180;2024-01-15T07:08:32;-2.00;99.90
11284;DHT22;5698;47.332;11.180;2024-01-15T07:10:59;-2.00;99.90
11284;DHT22;5698;47.332;11.180;2024-01-15T07:13:29;-2.10;99.90
11284;DHT22;5698;47.332;11.180;2024-01-15T07:15:58;-2.10;99.90
11284;DHT22;5698;47.332;11.180;2024-01-15T07:18:25;-2.10;99.90
11284;DHT22;5698;47.332;11.180;2024-01-15T07:20:52;-2.10;99.90
11284;DHT22;5698;47.332;11.180;2024-01-15T07:23:19;-2.10;99.90
11284;DHT22;5698;47.332;11.180;2024-01-15T07:25:46;-2.10;99.90
11284;DHT22;5698;47.332;11.180;2024-01-15T07:28:13;-2.10;99.90
11284;DHT22;5698;47.332;11.180;2024-01-15T07:30:40;-2.10;99.90
11284;DHT22;5698;47.332;11.180;2024-01-15T07:33:08;-2.10;99.90
11284;DHT22;5698;47.332;11.180;2024-01-15T07:35:35;-2.10;99.90
11284;DHT22;5698;47.332;11.180;2024-01-15T07:38:02;-2.20;99.90
11284;DHT22;5698;47.332;11.180;2024-01-15T07:40:29;-2.20;99.90
11284;DHT22;5698;47.332;11.180;2024-01-15T07:42:56;-2.20;99.90
11284;DHT22;5698;47.332;11.180;2024-01-15T07:45:23;-2.20;99.90
11284;DHT22;5698;47.332;11.180;2024-01-15T07:47:50;-2.20;99.90
11284;DHT22;5698;47.332;11.180;2024-01-15T07:50:19;-2.20;99.90
11284;DHT22;5698;47.332;11.180;2024-01-15T07:52:46;-2.20;99.90
11284;DHT22;5698;47.332;11.180;2024-01-15T07:55:13;-2.20;99.90
11284;DHT22;5698;47.332;11.180;2024-01-15T07:57:40;-2.20;99.90
11284;DHT22;5698;47.332;11.180;2024-01-15T08:00:07;-2.20;99.90
11284;DHT22;5698;47.332;11.180;2024-01-15T08:02:34;-2.20;99.90
11284;DHT22;5698;47.332;11.180;2024-01-15T08:05:01;-2.20;99.90
11284;DHT22;5698;47.332;11.180;2024-01-15T08:07:30;-2.20;99.90
11284;DHT22;5698;47.332;11.180;2024-01-15T08:09:57;-2.20;99.90
11284;DHT22;5698;47.332;11.180;2024-01-15T08:12:24;-2.20;99.90
11284;DHT22;5698;47.332;11.180;2024-01-15T08:14:50;-2.20;99.90
11284;DHT22;5698;47.332;11.180;2024-01-15T08:17:17;-2.20;99.90
11284;DHT22;5698;47.332;11.180;2024-01-15T08:19:44;-2.10;99.90
11284;DHT22;5698;47.332;11.180;2024-01-15T08:22:12;-2.10;99.90
11284;DHT22;5698;47.332;11.180;2024-01-15T08:24:40;-2.00;99.90
11284;DHT22;5698;47.332;11.180;2024-01-15T08:27:07;-2.00;99.90
11284;DHT22;5698;47.332;11.180;2024-01-15T08:29:34;-2.00;99.90
11284;DHT22;5698;47.332;11.180;2024-01-15T08:32:01;-2.00;99.90
11284;DHT22;5698;47.332;11.180;2024-01-15T08:34:28;-1.90;99.90
11284;DHT22;5698;47.332;11.180;2024-01-15T08:36:55;-1.90;99.90
11284;DHT22;5698;47.332;11.180;2024-01-15T08:39:22;-1.80;99.90
11284;DHT22;5698;47.332;11.180;2024-01-15T08:41:50;-1.80;99.90
11284;DHT22;5698;47.332;11.180;2024-01-15T08:44:17;-1.80;99.90
11284;DHT22;5698;47.332;11.180;2024-01-15T08:46:44;-1.80;99.90
11284;DHT22;5698;47.332;11.180;2024-01-15T08:49:11;-1.80;99.90
11284;DHT22;5698;47.332;11.180;2024-01-15T08:51:38;-1.70;99.90
11284;DHT22;5698;47.332;11.180;2024-01-15T08:54:05;-1.70;99.90
11284;DHT22;5698;47.332;11.180;2024-01-15T08:56:34;-1.70;99.90
11284;DHT22;5698;47.332;11.180;2024-01-15T08:59:02;-1.60;99.90
11284;DHT22;5698;47.332;11.180;2024-01-15T09:01:29;-1.70;99.90
11284;DHT22;5698;47.332;11.180;2024-01-15T09:03:56;-1.60;99.90
11284;DHT22;5698;47.332;11.180;2024-01-15T09:06:23;-1.60;99.90
11284;DHT22;5698;47.332;11.180;2024-01-15T09:08:50;-1.60;99.90
11284;DHT22;5698;47.332;11.180;2024-01-15T09:11:17;-1.60;99.90
11284;DHT22;5698;47.332;11.180;2024-01-15T09:13:44;-1.60;99.90
11284;DHT22;5698;47.332;11.180;2024-01-15T09:16:12;-1.50;99.90
11284;DHT22;5698;47.332;11.180;2024-01-15T09:18:39;-1.50;99.90
11284;DHT22;5698;47.332;11.180;2024-01-15T09:21:06;-1.40;99.90
11284;DHT22;5698;47.332;11.180;2024-01-15T09:23:33;-1.30;99.90
11284;DHT22;5698;47.332;11.180;2024-01-15T09:26:01;-1.20;99.90
11284;DHT22;5698;47.332;11.180;2024-01-15T09:28:28;-1.10;99.90
11284;DHT22;5698;47.332;11.180;2024-01-15T09:30:55;-1.00;99.90
11284;DHT22;5698;47.332;11.180;2024-01-15T09:33:23;-0.90;99.90
11284;DHT22;5698;47.332;11.180;2024-01-15T09:35:50;-0.80;99.90
11284;DHT22;5698;47.332;11.180;2024-01-15T09:38:17;-0.70;99.90
11284;DHT22;5698;47.332;11.180;2024-01-15T09:40:45;-0.60;99.90
11284;DHT22;5698;47.332;11.180;2024-01-15T09:43:14;-0.50;99.90
11284;DHT22;5698;47.332;11.180;2024-01-15T09:45:41;-0.40;99.90
11284;DHT22;5698;47.332;11.180;2024-01-15T09:48:09;-0.40;99.90
11284;DHT22;5698;47.332;11.180;2024-01-15T09:50:37;-0.30;99.90
11284;DHT22;5698;47.332;11.180;2024-01-15T09:53:05;-0.20;99.90
11284;DHT22;5698;47.332;11.180;2024-01-15T09:55:32;-0.20;99.90
11284;DHT22;5698;47.332;11.180;2024-01-15T09:58:00;-0.20;99.90
11284;DHT22;5698;47.332;11.180;2024-01-15T10:00:29;-0.10;99.90
11284;DHT22;5698;47.332;11.180;2024-01-15T10:02:57;-0.20;99.90
11284;DHT22;5698;47.332;11.180;2024-01-15T10:05:26;-0.10;99.90
11284;DHT22;5698;47.332;11.180;2024-01-15T10:07:55;-0.10;99.90
11284;DHT22;5698;47.332;11.180;2024-01-15T10:10:23;0.00;99.90
11284;DHT22;5698;47.332;11.180;2024-01-15T10:12:50;0.10;99.90
11284;DHT22;5698;47.332;11.180;2024-01-15T10:15:17;0.20;99.90
11284;DHT22;5698;47.332;11.180;2024-01-15T10:17:44;0.20;99.90
11284;DHT22;5698;47.332;11.180;2024-01-15T10:20:12;0.30;99.90
11284;DHT22;5698;47.332;11.180;2024-01-15T10:22:41;0.20;99.90
11284;DHT22;5698;47.332;11.180;2024-01-15T10:25:12;0.00;99.90
11284;DHT22;5698;47.332;11.180;2024-01-15T10:27:39;0.00;99.90
11284;DHT22;5698;47.332;11.180;2024-01-15T10:30:07;0.10;99.90
11284;DHT22;5698;47.332;11.180;2024-01-15T10:32:34;0.00;99.90
11284;DHT22;5698;47.332;11.180;2024-01-15T10:35:01;0.10;99.90
11284;DHT22;5698;47.332;11.180;2024-01-15T10:37:28;0.20;99.90
11284;DHT22;5698;47.332;11.180;2024-01-15T10:40:01;0.40;99.90
11284;DHT22;5698;47.332;11.180;2024-01-15T10:42:30;0.50;99.90
11284;DHT22;5698;47.332;11.180;2024-01-15T10:44:57;0.50;99.90
11284;DHT22;5698;47.332;11.180;2024-01-15T10:47:24;0.50;99.90
11284;DHT22;5698;47.332;11.180;2024-01-15T10:49:51;0.60;99.90
11284;DHT22;5698;47.332;11.180;2024-01-15T10:52:19;0.70;99.90
11284;DHT22;5698;47.332;11.180;2024-01-15T10:54:46;0.80;99.90
11284;DHT22;5698;47.332;11.180;2024-01-15T10:57:15;1.00;99.90
11284;DHT22;5698;47.332;11.180;2024-01-15T10:59:44;0.90;99.90
11284;DHT22;5698;47.332;11.180;2024-01-15T11:02:12;0.90;99.90
11284;DHT22;5698;47.332;11.180;2024-01-15T11:04:40;0.80;99.90
11284;DHT22;5698;47.332;11.180;2024-01-15T11:07:07;0.90;99.90
11284;DHT22;5698;47.332;11.180;2024-01-15T11:09:36;0.90;99.90
11284;DHT22;5698;47.332;11.180;2024-01-15T11:12:08;0.90;99.90
11284;DHT22;5698;47.332;11.180;2024-01-15T11:14:38;1.00;99.90
11284;DHT22;5698;47.332;11.180;2024-01-15T11:17:08;1.10;99.90
11284;DHT22;5698;47.332;11.180;2024-01-15T11:19:38;1.20;99.90
11284;DHT22;5698;47.332;11.180;2024-01-15T11:22:10;1.20;99.90
11284;DHT22;5698;47.332;11.180;2024-01-15T11:24:38;1.10;99.90
11284;DHT22;5698;47.332;11.180;2024-01-15T11:27:06;1.10;99.90
11284;DHT22;5698;47.332;11.180;2024-01-15T11:29:34;1.10;99.90
11284;DHT22;5698;47.332;11.180;2024-01-15T11:32:11;0.90;99.90
11284;DHT22;5698;47.332;11.180;2024-01-15T11:34:57;0.70;99.90
11284;DHT22;5698;47.332;11.180;2024-01-15T11:37:28;0.60;99.90
11284;DHT22;5698;47.332;11.180;2024-01-15T11:40:01;0.60;99.90
11284;DHT22;5698;47.332;11.180;2024-01-15T11:42:30;0.70;99.90
11284;DHT22;5698;47.332;11.180;2024-01-15T11:44:57;0.90;99.90
11284;DHT22;5698;47.332;11.180;2024-01-15T11:50:35;1.10;99.90
11284;DHT22;5698;47.332;11.180;2024-01-15T11:53:16;1.30;99.90
11284;DHT22;5698;47.332;11.180;2024-01-15T11:55:45;1.40;99.90
11284;DHT22;5698;47.332;11.180;2024-01-15T11:58:14;1.40;99.90
11284;DHT22;5698;47.332;11.180;2024-01-15T12:00:43;1.40;99.90
11284;DHT22;5698;47.332;11.180;2024-01-15T12:03:12;1.20;99.90
11284;DHT22;5698;47.332;11.180;2024-01-15T12:05:39;1.20;99.90
11284;DHT22;5698;47.332;11.180;2024-01-15T12:08:07;1.10;99.90
11284;DHT22;5698;47.332;11.180;2024-01-15T12:10:37;0.90;99.90
11284;DHT22;5698;47.332;11.180;2024-01-15T12:13:10;0.80;99.90
11284;DHT22;5698;47.332;11.180;2024-01-15T12:15:39;0.80;99.90
11284;DHT22;5698;47.332;11.180;2024-01-15T12:18:08;1.00;99.90
11284;DHT22;5698;47.332;11.180;2024-01-15T12:20:37;1.20;99.90
11284;DHT22;5698;47.332;11.180;2024-01-15T12:23:04;1.20;99.90
11284;DHT22;5698;47.332;11.180;2024-01-15T12:25:31;1.20;99.90
11284;DHT22;5698;47.332;11.180;2024-01-15T12:28:00;1.20;99.90
11284;DHT22;5698;47.332;11.180;2024-01-15T12:30:27;1.10;99.90
11284;DHT22;5698;47.332;11.180;2024-01-15T12:32:54;1.00;99.90
11284;DHT22;5698;47.332;11.180;2024-01-15T12:35:23;0.90;99.90
11284;DHT22;5698;47.332;11.180;2024-01-15T12:37:54;1.00;99.90
11284;DHT22;5698;47.332;11.180;2024-01-15T12:40:23;0.80;99.90
11284;DHT22;5698;47.332;11.180;2024-01-15T12:42:50;0.60;99.90
11284;DHT22;5698;47.332;11.180;2024-01-15T12:45:17;0.40;99.90
11284;DHT22;5698;47.332;11.180;2024-01-15T12:47:44;0.40;99.90
11284;DHT22;5698;47.332;11.180;2024-01-15T12:50:13;0.30;99.90
11284;DHT22;5698;47.332;11.180;2024-01-15T12:52:40;0.30;99.90
11284;DHT22;5698;47.332;11.180;2024-01-15T12:55:10;0.20;99.90
11284;DHT22;5698;47.332;11.180;2024-01-15T12:57:37;0.10;99.90
11284;DHT22;5698;47.332;11.180;2024-01-15T13:00:06;0.00;99.90
11284;DHT22;5698;47.332;11.180;2024-01-15T13:02:37;0.00;99.90
11284;DHT22;5698;47.332;11.180;2024-01-15T13:05:05;0.00;99.90
11284;DHT22;5698;47.332;11.180;2024-01-15T13:07:32;-0.10;99.90
11284;DHT22;5698;47.332;11.180;2024-01-15T13:09:59;-0.20;99.90
11284;DHT22;5698;47.332;11.180;2024-01-15T13:12:28;-0.10;99.90
11284;DHT22;5698;47.332;11.180;2024-01-15T13:14:55;0.00;99.90
11284;DHT22;5698;47.332;11.180;2024-01-15T13:17:23;0.20;99.90
11284;DHT22;5698;47.332;11.180;2024-01-15T13:19:50;0.30;99.90
11284;DHT22;5698;47.332;11.180;2024-01-15T13:22:17;0.30;99.90
11284;DHT22;5698;47.332;11.180;2024-01-15T13:24:44;0.40;99.90
11284;DHT22;5698;47.332;11.180;2024-01-15T13:27:11;0.40;99.90
11284;DHT22;5698;47.332;11.180;2024-01-15T13:29:39;0.40;99.90
11284;DHT22;5698;47.332;11.180;2024-01-15T13:32:06;0.40;99.90
11284;DHT22;5698;47.332;11.180;2024-01-15T13:34:35;0.30;99.90
11284;DHT22;5698;47.332;11.180;2024-01-15T13:37:02;0.20;99.90
11284;DHT22;5698;47.332;11.180;2024-01-15T13:39:29;0.20;99.90
11284;DHT22;5698;47.332;11.180;2024-01-15T13:41:59;0.10;99.90
11284;DHT22;5698;47.332;11.180;2024-01-15T13:44:26;0.10;99.90
11284;DHT22;5698;47.332;11.180;2024-01-15T13:46:55;0.10;99.90
11284;DHT22;5698;47.332;11.180;2024-01-15T13:49:22;0.00;99.90
11284;DHT22;5698;47.332;11.180;2024-01-15T13:51:50;-0.10;99.90
11284;DHT22;5698;47.332;11.180;2024-01-15T13:54:17;-0.20;99.90
11284;DHT22;5698;47.332;11.180;2024-01-15T13:56:46;-0.30;99.90
11284;DHT22;5698;47.332;11.180;2024-01-15T13:59:13;-0.30;99.90
11284;DHT22;5698;47.332;11.180;2024-01-15T14:01:40;-0.30;99.90
11284;DHT22;5698;47.332;11.180;2024-01-15T14:04:10;-0.30;99.90
11284;DHT22;5698;47.332;11.180;2024-01-15T14:06:37;-0.30;99.90
11284;DHT22;5698;47.332;11.180;2024-01-15T14:09:04;-0.30;99.90
11284;DHT22;5698;47.332;11.180;2024-01-15T14:11:35;-0.30;99.90
11284;DHT22;5698;47.332;11.180;2024-01-15T14:14:02;-0.30;99.90
11284;DHT22;5698;47.332;11.180;2024-01-15T14:16:29;-0.30;99.90
11284;DHT22;5698;47.332;11.180;2024-01-15T14:18:56;-0.40;99.90
11284;DHT22;5698;47.332;11.180;2024-01-15T14:21:24;-0.40;99.90
11284;DHT22;5698;47.332;11.180;2024-01-15T14:23:51;-0.40;99.90
11284;DHT22;5698;47.332;11.180;2024-01-15T14:26:18;-0.40;99.90
11284;DHT22;5698;47.332;11.180;2024-01-15T14:28:45;-0.50;99.90
11284;DHT22;5698;47.332;11.180;2024-01-15T14:31:13;-0.60;99.90
11284;DHT22;5698;47.332;11.180;2024-01-15T14:33:40;-0.60;99.90
11284;DHT22;5698;47.332;11.180;2024-01-15T14:36:08;-0.70;99.90
11284;DHT22;5698;47.332;11.180;2024-01-15T14:38:36;-0.70;99.90
11284;DHT22;5698;47.332;11.180;2024-01-15T14:41:03;-0.60;99.90
11284;DHT22;5698;47.332;11.180;2024-01-15T14:43:30;-0.80;99.90
11284;DHT22;5698;47.332;11.180;2024-01-15T14:45:58;-0.80;99.90
11284;DHT22;5698;47.332;11.180;2024-01-15T14:48:25;-0.80;99.90
11284;DHT22;5698;47.332;11.180;2024-01-15T14:50:52;-0.80;99.90
11284;DHT22;5698;47.332;11.180;2024-01-15T14:53:19;-0.80;99.90
11284;DHT22;5698;47.332;11.180;2024-01-15T14:55:48;-0.80;99.90
11284;DHT22;5698;47.332;11.180;2024-01-15T14:58:15;-0.90;99.90
11284;DHT22;5698;47.332;11.180;2024-01-15T15:00:43;-0.90;99.90
11284;DHT22;5698;47.332;11.180;2024-01-15T15:03:11;-0.90;99.90
11284;DHT22;5698;47.332;11.180;2024-01-15T15:05:39;-1.00;99.90
11284;DHT22;5698;47.332;11.180;2024-01-15T15:08:06;-1.00;99.90
11284;DHT22;5698;47.332;11.180;2024-01-15T15:10:34;-1.00;99.90
11284;DHT22;5698;47.332;11.180;2024-01-15T15:13:03;-1.10;99.90
11284;DHT22;5698;47.332;11.180;2024-01-15T15:15:29;-1.10;99.90
11284;DHT22;5698;47.332;11.180;2024-01-15T15:17:56;-1.20;99.90
11284;DHT22;5698;47.332;11.180;2024-01-15T15:20:23;-1.20;99.90
11284;DHT22;5698;47.332;11.180;2024-01-15T15:22:50;-1.30;99.90
11284;DHT22;5698;47.332;11.180;2024-01-15T15:25:20;-1.30;99.90
11284;DHT22;5698;47.332;11.180;2024-01-15T15:27:47;-1.40;99.90
11284;DHT22;5698;47.332;11.180;2024-01-15T15:30:16;-1.30;99.90
11284;DHT22;5698;47.332;11.180;2024-01-15T15:32:42;-1.40;99.90
11284;DHT22;5698;47.332;11.180;2024-01-15T15:35:09;-1.40;99.90
11284;DHT22;5698;47.332;11.180;2024-01-15T15:37:36;-1.40;99.90
11284;DHT22;5698;47.332;11.180;2024-01-15T15:40:05;-1.50;99.90
11284;DHT22;5698;47.332;11.180;2024-01-15T15:42:34;-1.40;99.90